Time;durP1;ratioP1;P1;durP2;ratioP2;P2;SDS_P1;SDS_P2;PMS_P1;PMS_P2;Temp;Humidity;BMP_temperature;BMP_pressure;BME280_temperature;BME280_humidity;BME280_pressure;Samples;Min_cycle;Max_cycle;Signal;HPM_P1;HPM_P2
2021/11/13 00:01:36;;;;;;;25.90;18.98;;;;;;;;;;5053559;28;20044;-67
2021/11/13 00:04:21;;;;;;;24.10;17.45;;;;;;;;;;5053288;28;20439;-66
2021/11/13 00:07:07;;;;;;;24.13;18.80;;;;;;;;;;5047819;28;20439;-65
2021/11/13 00:09:52;;;;;;;23.90;18.85;;;;;;;;;;5053090;28;20067;-62
2021/11/13 00:12:37;;;;;;;24.88;18.13;;;;;;;;;;5028456;28;20029;-66
2021/11/13 00:15:23;;;;;;;24.90;18.65;;;;;;;;;;5063984;28;20051;-63
2021/11/13 00:18:10;;;;;;;23.02;18.55;;;;;;;;;;5062929;28;20033;-66
2021/11/13 00:20:55;;;;;;;23.15;17.00;;;;;;;;;;5050431;28;20037;-67
2021/11/13 00:23:40;;;;;;;24.70;18.45;;;;;;;;;;5036341;28;20060;-63
2021/11/13 00:26:26;;;;;;;27.73;18.10;;;;;;;;;;5027119;28;20256;-63
2021/11/13 00:29:11;;;;;;;23.63;17.50;;;;;;;;;;5040958;28;20364;-62
2021/11/13 00:31:56;;;;;;;23.63;16.08;;;;;;;;;;5050091;28;20031;-61
2021/11/13 00:34:41;;;;;;;27.65;21.50;;;;;;;;;;5045609;28;20048;-61
2021/11/13 00:37:27;;;;;;;23.00;17.83;;;;;;;;;;5048212;28;20102;-61
2021/11/13 00:40:14;;;;;;;22.40;16.92;;;;;;;;;;5037913;28;20040;-60
2021/11/13 00:42:59;;;;;;;23.73;18.35;;;;;;;;;;5067080;28;20098;-61
2021/11/13 00:45:44;;;;;;;25.13;19.25;;;;;;;;;;5053040;28;20060;-61
2021/11/13 00:48:29;;;;;;;22.65;17.70;;;;;;;;;;5052530;28;20037;-66
2021/11/13 00:51:15;;;;;;;24.65;19.20;;;;;;;;;;5051080;28;20047;-65
2021/11/13 00:54:00;;;;;;;24.00;16.20;;;;;;;;;;5049411;28;22294;-65
2021/11/13 00:56:47;;;;;;;21.52;15.77;;;;;;;;;;5051350;28;20489;-66
2021/11/13 00:59:32;;;;;;;22.27;15.75;;;;;;;;;;5042950;28;20025;-67
2021/11/13 01:02:17;;;;;;;26.33;19.42;;;;;;;;;;5053343;28;20391;-65
2021/11/13 01:05:03;;;;;;;21.10;16.63;;;;;;;;;;5044899;28;20029;-62
2021/11/13 01:07:49;;;;;;;23.55;18.17;;;;;;;;;;5047814;28;20035;-64
2021/11/13 01:10:34;;;;;;;23.70;17.52;;;;;;;;;;5053461;28;20467;-66
2021/11/13 01:13:19;;;;;;;22.95;16.73;;;;;;;;;;5042053;28;20039;-65
2021/11/13 01:16:05;;;;;;;23.38;17.65;;;;;;;;;;5070055;28;20729;-63
2021/11/13 01:18:50;;;;;;;25.45;18.02;;;;;;;;;;5062159;28;20115;-64
2021/11/13 01:21:35;;;;;;;24.25;16.27;;;;;;;;;;5063074;28;20044;-66
2021/11/13 01:24:21;;;;;;;20.25;15.25;;;;;;;;;;5053469;28;20410;-65
2021/11/13 01:27:06;;;;;;;24.08;19.10;;;;;;;;;;5055025;28;20118;-63
2021/11/13 01:29:51;;;;;;;28.85;19.58;;;;;;;;;;5057029;28;20028;-61
2021/11/13 01:32:37;;;;;;;25.52;17.20;;;;;;;;;;5052131;28;20584;-64
2021/11/13 01:35:24;;;;;;;30.75;21.60;;;;;;;;;;5054220;28;20039;-63
2021/11/13 01:38:09;;;;;;;27.55;20.42;;;;;;;;;;5054701;28;20235;-65
2021/11/13 01:40:55;;;;;;;27.48;19.35;;;;;;;;;;5052565;28;20048;-61
2021/11/13 01:43:40;;;;;;;22.80;17.40;;;;;;;;;;5054683;28;20066;-64
2021/11/13 01:46:26;;;;;;;32.88;23.75;;;;;;;;;;5055161;28;20027;-66
2021/11/13 01:49:11;;;;;;;26.30;19.83;;;;;;;;;;5056752;28;20170;-68
2021/11/13 01:51:56;;;;;;;26.40;18.83;;;;;;;;;;5069269;28;20421;-69
2021/11/13 01:54:42;;;;;;;34.03;19.08;;;;;;;;;;5042899;28;20032;-67
2021/11/13 01:57:33;;;;;;;43.22;21.42;;;;;;;;;;5050551;28;20048;-67
2021/11/13 02:00:30;;;;;;;35.30;23.42;;;;;;;;;;5053774;28;20035;-65
2021/11/13 02:03:16;;;;;;;30.88;20.73;;;;;;;;;;5053213;28;20028;-67
2021/11/13 02:06:02;;;;;;;31.45;21.55;;;;;;;;;;5050961;28;20031;-67
2021/11/13 02:08:47;;;;;;;32.42;21.55;;;;;;;;;;5049605;28;20124;-66
2021/11/13 02:11:33;;;;;;;34.13;23.10;;;;;;;;;;5055553;28;20040;-68
2021/11/13 02:14:18;;;;;;;28.58;18.92;;;;;;;;;;5056749;28;20169;-68
2021/11/13 02:17:03;;;;;;;26.77;18.25;;;;;;;;;;5052870;28;20039;-66
2021/11/13 02:19:49;;;;;;;23.20;17.67;;;;;;;;;;5050065;28;20021;-65
2021/11/13 02:22:35;;;;;;;33.05;18.25;;;;;;;;;;5049141;28;20063;-65
2021/11/13 02:25:21;;;;;;;25.17;18.05;;;;;;;;;;5048409;28;20060;-65
2021/11/13 02:28:07;;;;;;;23.83;17.90;;;;;;;;;;5050542;28;20400;-66
2021/11/13 02:30:54;;;;;;;25.17;18.40;;;;;;;;;;5055747;28;20044;-66
2021/11/13 02:33:39;;;;;;;32.38;22.10;;;;;;;;;;5053883;28;20024;-67
2021/11/13 02:36:25;;;;;;;24.42;17.17;;;;;;;;;;5063899;28;20036;-68
2021/11/13 02:39:11;;;;;;;25.15;17.90;;;;;;;;;;5053898;28;20032;-68
2021/11/13 02:41:56;;;;;;;28.23;19.60;;;;;;;;;;5055445;28;20031;-67
2021/11/13 02:44:42;;;;;;;24.25;17.52;;;;;;;;;;5066580;28;20352;-66
2021/11/13 02:47:27;;;;;;;25.73;18.13;;;;;;;;;;5047090;28;20483;-66
2021/11/13 02:50:14;;;;;;;21.30;15.63;;;;;;;;;;5053536;28;20049;-64
2021/11/13 02:53:00;;;;;;;20.75;15.18;;;;;;;;;;5052839;28;20107;-65
2021/11/13 02:55:46;;;;;;;22.63;16.48;;;;;;;;;;5049259;28;20367;-65
2021/11/13 02:58:32;;;;;;;25.17;16.77;;;;;;;;;;5049875;28;20059;-69
2021/11/13 03:01:19;;;;;;;24.20;17.10;;;;;;;;;;5054602;28;20588;-66
2021/11/13 03:04:05;;;;;;;22.27;17.92;;;;;;;;;;5053020;28;20033;-68
2021/11/13 03:06:50;;;;;;;20.15;15.15;;;;;;;;;;5054163;28;20131;-69
2021/11/13 03:09:36;;;;;;;22.75;15.65;;;;;;;;;;5048099;28;20020;-69
2021/11/13 03:12:21;;;;;;;28.27;19.70;;;;;;;;;;5065431;28;20017;-69
2021/11/13 03:15:08;;;;;;;24.55;15.95;;;;;;;;;;5034224;28;20064;-69
2021/11/13 03:17:54;;;;;;;24.15;17.40;;;;;;;;;;5068392;28;20032;-69
2021/11/13 03:20:39;;;;;;;23.75;16.48;;;;;;;;;;5065938;28;20055;-68
2021/11/13 03:23:25;;;;;;;19.25;14.70;;;;;;;;;;5054480;28;20033;-68
2021/11/13 03:26:20;;;;;;;23.33;17.35;;;;;;;;;;5046216;28;20032;-70
2021/11/13 03:29:09;;;;;;;21.42;16.08;;;;;;;;;;5050054;28;20064;-68
2021/11/13 03:31:56;;;;;;;22.35;16.75;;;;;;;;;;5060783;28;20062;-64
2021/11/13 03:34:41;;;;;;;21.73;15.15;;;;;;;;;;5045371;28;20024;-63
2021/11/13 03:37:27;;;;;;;19.38;14.38;;;;;;;;;;5057402;28;20028;-61
2021/11/13 03:40:12;;;;;;;20.52;15.43;;;;;;;;;;5052513;28;20044;-60
2021/11/13 03:42:57;;;;;;;18.55;14.57;;;;;;;;;;5061712;28;20048;-62
2021/11/13 03:45:44;;;;;;;19.90;15.88;;;;;;;;;;5026671;28;20036;-60
2021/11/13 03:48:29;;;;;;;21.55;16.60;;;;;;;;;;5029476;28;20082;-64
2021/11/13 03:51:15;;;;;;;22.52;16.80;;;;;;;;;;5051824;28;20117;-65
2021/11/13 03:54:00;;;;;;;18.17;13.95;;;;;;;;;;5067105;28;20024;-61
2021/11/13 03:56:45;;;;;;;19.15;13.63;;;;;;;;;;5049825;28;20032;-62
2021/11/13 03:59:30;;;;;;;22.23;15.27;;;;;;;;;;5048784;28;20033;-61
2021/11/13 04:02:16;;;;;;;21.25;16.38;;;;;;;;;;5046001;28;20037;-63
2021/11/13 04:05:01;;;;;;;20.45;14.30;;;;;;;;;;5049932;28;20479;-63
2021/11/13 04:07:47;;;;;;;20.27;15.35;;;;;;;;;;5052757;28;20171;-63
2021/11/13 04:10:32;;;;;;;21.60;15.07;;;;;;;;;;5044678;28;20036;-68
2021/11/13 04:13:18;;;;;;;17.42;14.20;;;;;;;;;;5049542;28;20036;-65
2021/11/13 04:16:03;;;;;;;21.80;16.77;;;;;;;;;;5052496;28;20033;-68
2021/11/13 04:18:48;;;;;;;20.02;14.55;;;;;;;;;;5062554;28;20032;-67
2021/11/13 04:21:34;;;;;;;21.00;15.57;;;;;;;;;;5049101;28;20459;-68
2021/11/13 04:24:19;;;;;;;22.02;16.50;;;;;;;;;;5058705;28;20027;-65
2021/11/13 04:27:04;;;;;;;21.02;16.65;;;;;;;;;;5045455;28;20033;-62
2021/11/13 04:29:50;;;;;;;22.15;16.70;;;;;;;;;;5036512;28;20087;-67
2021/11/13 04:32:37;;;;;;;23.95;17.02;;;;;;;;;;5047109;28;20099;-63
2021/11/13 04:35:34;;;;;;;21.75;15.20;;;;;;;;;;5049668;28;20044;-64
2021/11/13 04:38:20;;;;;;;21.13;16.67;;;;;;;;;;5037600;28;20470;-63
2021/11/13 04:41:06;;;;;;;19.67;14.93;;;;;;;;;;5054041;28;20105;-64
2021/11/13 04:43:51;;;;;;;19.65;14.98;;;;;;;;;;5066110;28;20068;-64
2021/11/13 04:46:36;;;;;;;20.13;14.93;;;;;;;;;;5025590;28;20036;-66
2021/11/13 04:49:21;;;;;;;20.08;16.02;;;;;;;;;;5052510;28;20024;-66
2021/11/13 04:52:07;;;;;;;23.00;17.48;;;;;;;;;;5058321;28;20072;-65
2021/11/13 04:54:52;;;;;;;19.55;15.23;;;;;;;;;;5045193;28;20032;-68
2021/11/13 04:57:38;;;;;;;20.50;16.20;;;;;;;;;;5056364;28;20043;-65
2021/11/13 05:00:25;;;;;;;21.50;16.55;;;;;;;;;;5063626;28;20483;-66
2021/11/13 05:03:10;;;;;;;19.48;16.08;;;;;;;;;;5051382;28;20403;-67
2021/11/13 05:05:56;;;;;;;18.80;15.05;;;;;;;;;;5027590;28;20033;-66
2021/11/13 05:08:41;;;;;;;20.08;15.07;;;;;;;;;;5039609;28;20547;-60
2021/11/13 05:11:27;;;;;;;18.75;14.93;;;;;;;;;;5050821;28;20029;-62
2021/11/13 05:14:12;;;;;;;21.00;16.08;;;;;;;;;;5047632;28;20190;-62
2021/11/13 05:16:57;;;;;;;22.55;16.10;;;;;;;;;;5040252;28;20029;-62
2021/11/13 05:19:42;;;;;;;18.70;14.73;;;;;;;;;;5056049;28;20028;-62
2021/11/13 05:22:27;;;;;;;17.90;13.75;;;;;;;;;;5052015;28;20060;-63
2021/11/13 05:25:14;;;;;;;20.50;15.85;;;;;;;;;;5055292;28;20651;-68
2021/11/13 05:27:59;;;;;;;19.50;16.08;;;;;;;;;;5044526;28;20119;-63
2021/11/13 05:30:45;;;;;;;21.77;15.63;;;;;;;;;;5059004;28;20037;-62
2021/11/13 05:33:30;;;;;;;21.73;15.75;;;;;;;;;;5047674;28;21562;-64
2021/11/13 05:36:15;;;;;;;19.65;15.48;;;;;;;;;;5050799;28;20474;-62
2021/11/13 05:39:01;;;;;;;21.50;16.38;;;;;;;;;;5052189;28;20036;-62
2021/11/13 05:41:46;;;;;;;18.85;15.00;;;;;;;;;;5055548;28;20111;-65
2021/11/13 05:44:31;;;;;;;18.65;13.23;;;;;;;;;;5064470;28;20028;-61
2021/11/13 05:47:17;;;;;;;19.30;14.70;;;;;;;;;;5039655;28;20032;-60
2021/11/13 05:50:04;;;;;;;22.77;17.00;;;;;;;;;;5065676;28;20409;-60
2021/11/13 05:52:50;;;;;;;18.45;15.07;;;;;;;;;;5050057;28;20024;-60
2021/11/13 05:55:35;;;;;;;20.75;15.30;;;;;;;;;;5067605;28;20028;-62
2021/11/13 05:58:21;;;;;;;17.83;14.73;;;;;;;;;;5054216;28;20084;-64
2021/11/13 06:01:06;;;;;;;18.60;14.93;;;;;;;;;;5052585;28;20039;-64
2021/11/13 06:03:51;;;;;;;17.05;13.77;;;;;;;;;;5050106;28;20036;-63
2021/11/13 06:06:36;;;;;;;19.52;15.30;;;;;;;;;;5043698;28;20024;-62
2021/11/13 06:09:22;;;;;;;21.65;16.42;;;;;;;;;;5047683;28;20079;-62
2021/11/13 06:12:07;;;;;;;22.73;17.58;;;;;;;;;;5061099;28;20106;-60
2021/11/13 06:14:52;;;;;;;19.30;14.70;;;;;;;;;;5060898;28;20033;-60
2021/11/13 06:17:38;;;;;;;19.75;14.77;;;;;;;;;;5047922;28;20407;-61
2021/11/13 06:20:23;;;;;;;21.15;15.55;;;;;;;;;;5055215;28;20136;-63
2021/11/13 06:23:10;;;;;;;18.10;13.95;;;;;;;;;;5062500;28;20119;-63
2021/11/13 06:25:55;;;;;;;19.13;14.23;;;;;;;;;;5052090;28;20040;-63
2021/11/13 06:28:41;;;;;;;18.65;15.10;;;;;;;;;;5036363;28;20032;-64
2021/11/13 06:31:26;;;;;;;22.33;16.42;;;;;;;;;;5058602;28;20035;-64
2021/11/13 06:34:11;;;;;;;22.80;16.52;;;;;;;;;;5054523;28;20028;-68
2021/11/13 06:36:56;;;;;;;20.52;15.10;;;;;;;;;;5056651;28;20466;-68
2021/11/13 06:39:42;;;;;;;19.45;14.43;;;;;;;;;;5055238;28;20040;-64
2021/11/13 06:42:27;;;;;;;21.25;15.68;;;;;;;;;;5039850;28;20478;-64
2021/11/13 06:45:12;;;;;;;20.55;15.38;;;;;;;;;;5048480;28;20074;-64
2021/11/13 06:47:57;;;;;;;20.40;15.77;;;;;;;;;;5049286;28;20037;-63
2021/11/13 06:50:46;;;;;;;19.52;14.18;;;;;;;;;;5031421;28;20059;-63
2021/11/13 06:53:31;;;;;;;21.48;14.73;;;;;;;;;;5053709;28;20394;-63
2021/11/13 06:56:16;;;;;;;20.67;15.43;;;;;;;;;;5053154;28;20060;-71
2021/11/13 06:59:02;;;;;;;21.15;15.07;;;;;;;;;;5049922;28;20070;-71
2021/11/13 07:01:47;;;;;;;18.65;14.02;;;;;;;;;;5061944;28;20119;-68
2021/11/13 07:04:32;;;;;;;20.85;15.45;;;;;;;;;;5035823;28;20032;-67
2021/11/13 07:07:18;;;;;;;21.65;16.00;;;;;;;;;;5054587;28;20032;-68
2021/11/13 07:10:05;;;;;;;20.27;15.82;;;;;;;;;;5062871;28;20479;-66
2021/11/13 07:12:50;;;;;;;23.13;14.68;;;;;;;;;;5037720;28;20040;-67
2021/11/13 07:15:36;;;;;;;18.75;15.23;;;;;;;;;;5038941;28;20471;-67
2021/11/13 07:18:21;;;;;;;18.52;14.73;;;;;;;;;;5050482;28;20107;-62
2021/11/13 07:21:07;;;;;;;18.70;14.15;;;;;;;;;;5047075;28;20036;-63
2021/11/13 07:23:53;;;;;;;18.38;14.07;;;;;;;;;;5044811;28;20459;-66
2021/11/13 07:26:38;;;;;;;21.83;15.43;;;;;;;;;;5043779;28;20059;-62
2021/11/13 07:29:25;;;;;;;20.10;15.68;;;;;;;;;;5052854;28;20135;-67
2021/11/13 07:32:11;;;;;;;22.02;16.05;;;;;;;;;;5053797;28;20028;-65
2021/11/13 07:34:57;;;;;;;21.85;15.75;;;;;;;;;;5051482;28;20037;-61
2021/11/13 07:37:42;;;;;;;19.70;15.15;;;;;;;;;;5042580;28;20048;-61
2021/11/13 07:40:27;;;;;;;21.27;15.05;;;;;;;;;;5053602;28;20072;-63
2021/11/13 07:43:12;;;;;;;21.52;16.30;;;;;;;;;;5053845;28;20044;-62
2021/11/13 07:45:58;;;;;;;22.60;15.05;;;;;;;;;;5033552;28;20459;-61
2021/11/13 07:48:43;;;;;;;19.52;15.15;;;;;;;;;;5052970;28;20040;-60
2021/11/13 07:51:28;;;;;;;22.45;16.48;;;;;;;;;;5052795;28;20425;-57
2021/11/13 07:54:14;;;;;;;20.90;15.48;;;;;;;;;;5047242;28;20368;-67
2021/11/13 07:57:00;;;;;;;19.60;14.35;;;;;;;;;;5050179;28;20037;-65
2021/11/13 07:59:45;;;;;;;22.13;14.77;;;;;;;;;;5065702;28;20083;-64
2021/11/13 08:02:30;;;;;;;20.65;15.25;;;;;;;;;;5024074;28;20052;-66
2021/11/13 08:05:16;;;;;;;20.02;14.38;;;;;;;;;;5061806;28;20025;-66
2021/11/13 08:08:01;;;;;;;17.70;12.98;;;;;;;;;;5044685;28;20025;-67
2021/11/13 08:10:46;;;;;;;20.98;13.93;;;;;;;;;;5043224;28;20040;-66
2021/11/13 08:13:33;;;;;;;15.98;12.45;;;;;;;;;;5056480;28;20067;-61
2021/11/13 08:16:18;;;;;;;19.50;15.10;;;;;;;;;;5047026;28;20060;-64
2021/11/13 08:19:04;;;;;;;17.67;12.65;;;;;;;;;;5050732;28;20032;-63
2021/11/13 08:21:49;;;;;;;20.45;12.43;;;;;;;;;;5066778;28;20437;-62
2021/11/13 08:24:36;;;;;;;20.13;12.63;;;;;;;;;;5067586;28;20040;-62
2021/11/13 08:27:21;;;;;;;16.25;12.32;;;;;;;;;;5050217;28;20039;-66
2021/11/13 08:30:07;;;;;;;16.73;11.77;;;;;;;;;;5057286;28;20070;-60
2021/11/13 08:32:52;;;;;;;14.93;11.88;;;;;;;;;;5057028;28;20074;-62
2021/11/13 08:35:38;;;;;;;16.90;12.18;;;;;;;;;;5058390;28;20152;-61
2021/11/13 08:38:24;;;;;;;15.68;11.77;;;;;;;;;;5056280;28;20086;-61
2021/11/13 08:41:09;;;;;;;19.60;11.90;;;;;;;;;;5066924;28;20035;-62
2021/11/13 08:43:54;;;;;;;17.98;11.73;;;;;;;;;;5041393;28;20036;-62
2021/11/13 08:46:40;;;;;;;21.20;11.95;;;;;;;;;;5055456;28;20036;-62
2021/11/13 08:49:25;;;;;;;17.02;12.60;;;;;;;;;;5057006;28;20467;-62
2021/11/13 08:52:12;;;;;;;20.48;12.85;;;;;;;;;;5052654;28;20028;-61
2021/11/13 08:54:57;;;;;;;18.38;13.20;;;;;;;;;;5051152;28;20107;-61
2021/11/13 08:57:43;;;;;;;15.10;10.95;;;;;;;;;;5047019;28;20073;-60
2021/11/13 09:00:31;;;;;;;18.45;13.30;;;;;;;;;;5056963;28;20068;-61
2021/11/13 09:03:20;;;;;;;19.55;13.35;;;;;;;;;;5045398;28;20036;-66
2021/11/13 09:06:08;;;;;;;19.48;13.00;;;;;;;;;;5055874;28;20036;-56
2021/11/13 09:08:54;;;;;;;16.92;13.55;;;;;;;;;;5068347;28;20072;-64
2021/11/13 09:11:41;;;;;;;17.52;11.82;;;;;;;;;;5055686;28;20037;-62
2021/11/13 09:14:26;;;;;;;17.77;13.50;;;;;;;;;;5035825;28;20041;-62
2021/11/13 09:17:11;;;;;;;18.48;13.20;;;;;;;;;;5050395;28;20197;-65
2021/11/13 09:19:57;;;;;;;16.88;12.20;;;;;;;;;;5039373;28;20430;-63
2021/11/13 09:22:42;;;;;;;16.60;12.38;;;;;;;;;;5055036;28;20508;-62
2021/11/13 09:25:27;;;;;;;18.90;12.95;;;;;;;;;;5050834;28;20032;-60
2021/11/13 09:28:13;;;;;;;19.20;13.05;;;;;;;;;;5053583;28;20082;-57
2021/11/13 09:31:00;;;;;;;15.20;11.70;;;;;;;;;;5053525;28;20105;-60
2021/11/13 09:33:45;;;;;;;16.52;11.45;;;;;;;;;;5040212;28;20037;-61
2021/11/13 09:36:30;;;;;;;18.17;11.95;;;;;;;;;;5061319;28;20032;-60
2021/11/13 09:39:16;;;;;;;15.82;11.63;;;;;;;;;;5048662;28;20032;-63
2021/11/13 09:42:02;;;;;;;16.98;10.98;;;;;;;;;;5054841;28;20428;-67
2021/11/13 09:44:48;;;;;;;16.15;11.55;;;;;;;;;;5046396;28;20091;-74
2021/11/13 09:47:36;;;;;;;14.75;10.75;;;;;;;;;;5049389;28;20033;-72
2021/11/13 09:50:23;;;;;;;15.27;10.65;;;;;;;;;;5054619;28;20537;-69
2021/11/13 09:53:08;;;;;;;14.13;8.98;;;;;;;;;;5045406;28;20044;-68
2021/11/13 09:55:55;;;;;;;15.07;9.15;;;;;;;;;;5039103;28;20052;-70
2021/11/13 09:58:40;;;;;;;14.38;9.27;;;;;;;;;;5051309;28;20028;-60
2021/11/13 10:01:26;;;;;;;12.82;7.10;;;;;;;;;;5061258;28;20142;-62
2021/11/13 10:04:11;;;;;;;10.30;7.40;;;;;;;;;;5049502;28;20028;-80
2021/11/13 10:06:56;;;;;;;11.82;7.90;;;;;;;;;;5033440;28;20180;-68
2021/11/13 10:09:42;;;;;;;14.52;9.40;;;;;;;;;;5059519;28;20033;-69
2021/11/13 10:12:38;;;;;;;15.38;11.05;;;;;;;;;;5050555;28;20028;-69
2021/11/13 10:15:37;;;;;;;14.48;9.18;;;;;;;;;;5052818;28;20028;-71
2021/11/13 10:18:24;;;;;;;12.80;8.93;;;;;;;;;;5055926;28;20028;-63
2021/11/13 10:21:30;;;;;;;14.05;9.30;;;;;;;;;;5058450;28;20037;-71
2021/11/13 10:24:17;;;;;;;16.15;9.40;;;;;;;;;;5035314;28;20029;-68
2021/11/13 10:27:07;;;;;;;15.85;9.23;;;;;;;;;;5046056;28;20060;-71
2021/11/13 10:29:53;;;;;;;13.02;8.80;;;;;;;;;;5052574;28;20029;-70
2021/11/13 10:32:54;;;;;;;13.70;8.30;;;;;;;;;;5048049;28;20066;-65
2021/11/13 10:35:49;;;;;;;12.23;8.40;;;;;;;;;;5065757;28;20032;-60
2021/11/13 10:38:35;;;;;;;13.98;8.10;;;;;;;;;;5045443;28;20447;-59
2021/11/13 10:41:21;;;;;;;14.88;8.82;;;;;;;;;;5045553;28;20035;-59
2021/11/13 10:44:06;;;;;;;11.23;7.85;;;;;;;;;;5050114;28;20051;-60
2021/11/13 10:46:51;;;;;;;19.25;9.15;;;;;;;;;;5051716;28;20032;-60
2021/11/13 10:49:37;;;;;;;13.45;8.20;;;;;;;;;;5048977;28;20044;-60
2021/11/13 10:52:22;;;;;;;12.63;8.90;;;;;;;;;;5050131;28;20036;-62
2021/11/13 10:55:16;;;;;;;13.93;8.55;;;;;;;;;;5053287;28;20423;-63
2021/11/13 10:58:20;;;;;;;10.52;7.30;;;;;;;;;;5048299;28;20130;-66
2021/11/13 11:01:10;;;;;;;11.30;7.82;;;;;;;;;;5055275;28;20052;-65
2021/11/13 11:04:00;;;;;;;11.27;6.55;;;;;;;;;;5049831;28;20463;-65
2021/11/13 11:06:47;;;;;;;;;;;;;;;;;;5058455;28;20043;-64
2021/11/13 11:09:40;;;;;;;11.82;6.80;;;;;;;;;;5049797;28;19920;-70
2021/11/13 11:12:29;;;;;;;12.88;7.18;;;;;;;;;;5065568;28;20523;-60
2021/11/13 11:15:15;;;;;;;11.68;7.50;;;;;;;;;;5060694;28;20418;-68
2021/11/13 11:18:00;;;;;;;14.23;7.22;;;;;;;;;;5044568;28;20468;-67
2021/11/13 11:20:45;;;;;;;10.68;6.88;;;;;;;;;;5067247;28;20028;-65
2021/11/13 11:23:30;;;;;;;14.82;9.00;;;;;;;;;;5061710;28;20028;-65
2021/11/13 11:26:16;;;;;;;16.38;12.07;;;;;;;;;;5038984;28;20071;-66
2021/11/13 11:29:01;;;;;;;19.98;12.93;;;;;;;;;;5046137;28;20033;-60
2021/11/13 11:31:48;;;;;;;19.38;13.30;;;;;;;;;;5053022;28;20035;-58
2021/11/13 11:34:38;;;;;;;19.25;13.05;;;;;;;;;;5052802;28;20032;-71
2021/11/13 11:37:25;;;;;;;18.98;12.27;;;;;;;;;;5050937;28;20070;-70
2021/11/13 11:40:12;;;;;;;19.48;13.88;;;;;;;;;;5047486;28;20043;-73
2021/11/13 11:42:59;;;;;;;21.30;15.80;;;;;;;;;;5053570;28;20051;-66
2021/11/13 11:45:44;;;;;;;19.42;14.40;;;;;;;;;;5049481;28;20036;-62
2021/11/13 11:48:30;;;;;;;20.48;15.43;;;;;;;;;;5064354;28;20111;-73
2021/11/13 11:51:15;;;;;;;18.63;13.35;;;;;;;;;;5050499;28;20115;-71
2021/11/13 11:54:03;;;;;;;21.17;14.25;;;;;;;;;;5052134;28;20024;-63
2021/11/13 11:56:51;;;;;;;18.75;14.18;;;;;;;;;;5047686;28;20047;-63
2021/11/13 11:59:36;;;;;;;20.20;14.60;;;;;;;;;;5036471;28;20028;-62
2021/11/13 12:02:21;;;;;;;21.70;14.88;;;;;;;;;;5048908;28;20099;-64
2021/11/13 12:05:12;;;;;;;17.13;12.82;;;;;;;;;;5049353;28;20062;-61
2021/11/13 12:07:58;;;;;;;18.42;13.15;;;;;;;;;;5052811;28;20471;-61
2021/11/13 12:10:44;;;;;;;17.77;12.80;;;;;;;;;;5052534;28;20039;-69
2021/11/13 12:13:30;;;;;;;20.35;13.73;;;;;;;;;;5049901;28;20475;-70
2021/11/13 12:16:23;;;;;;;16.13;12.73;;;;;;;;;;5048682;28;20082;-64
2021/11/13 12:19:08;;;;;;;17.75;13.48;;;;;;;;;;5045537;28;20029;-68
2021/11/13 12:21:54;;;;;;;21.23;14.20;;;;;;;;;;5038066;28;20033;-64
2021/11/13 12:24:40;;;;;;;22.75;14.18;;;;;;;;;;5046298;28;20047;-69
2021/11/13 12:27:26;;;;;;;18.42;14.85;;;;;;;;;;5037346;28;20056;-63
2021/11/13 12:30:12;;;;;;;20.42;14.95;;;;;;;;;;5046994;28;20068;-63
2021/11/13 12:32:57;;;;;;;18.08;14.35;;;;;;;;;;5056486;28;20024;-65
2021/11/13 12:35:50;;;;;;;18.25;13.98;;;;;;;;;;5065916;28;20497;-62
2021/11/13 12:38:41;;;;;;;18.13;12.93;;;;;;;;;;5066149;28;20109;-62
2021/11/13 12:41:42;;;;;;;18.88;14.65;;;;;;;;;;5046082;28;20415;-65
2021/11/13 12:44:29;;;;;;;21.63;13.95;;;;;;;;;;5054467;28;20374;-61
2021/11/13 12:47:17;;;;;;;20.58;15.02;;;;;;;;;;5052324;28;20039;-62
2021/11/13 12:50:05;;;;;;;21.33;14.75;;;;;;;;;;5051361;28;20078;-64
2021/11/13 12:52:51;;;;;;;19.02;14.10;;;;;;;;;;5052152;28;20028;-62
2021/11/13 12:55:38;;;;;;;18.65;13.25;;;;;;;;;;5050137;28;20094;-61
2021/11/13 12:58:31;;;;;;;19.48;14.00;;;;;;;;;;5052404;28;20040;-63
2021/11/13 13:01:24;;;;;;;19.10;13.88;;;;;;;;;;5053118;28;20099;-63
2021/11/13 13:04:10;;;;;;;19.52;13.70;;;;;;;;;;5044416;28;20113;-69
2021/11/13 13:06:55;;;;;;;20.45;13.20;;;;;;;;;;5051278;28;20330;-61
2021/11/13 13:09:51;;;;;;;20.38;14.05;;;;;;;;;;5039835;28;20031;-63
2021/11/13 13:12:38;;;;;;;17.92;12.93;;;;;;;;;;5050884;28;20039;-62
2021/11/13 13:15:23;;;;;;;19.50;14.88;;;;;;;;;;5038656;28;20052;-60
2021/11/13 13:18:10;;;;;;;20.15;14.88;;;;;;;;;;5047986;28;20339;-62
2021/11/13 13:20:55;;;;;;;25.90;17.35;;;;;;;;;;5055304;28;20029;-70
2021/11/13 13:23:41;;;;;;;21.88;17.40;;;;;;;;;;5053452;28;20111;-69
2021/11/13 13:26:26;;;;;;;28.92;19.63;;;;;;;;;;5055604;28;20024;-70
2021/11/13 13:29:12;;;;;;;26.35;19.45;;;;;;;;;;5052315;28;20044;-73
2021/11/13 13:32:09;;;;;;;28.95;18.75;;;;;;;;;;5068125;28;20044;-66
2021/11/13 13:35:00;;;;;;;26.73;19.50;;;;;;;;;;5053204;28;20115;-66
2021/11/13 13:37:55;;;;;;;27.20;18.52;;;;;;;;;;5063991;28;20069;-66
2021/11/13 13:40:51;;;;;;;27.27;18.52;;;;;;;;;;5052500;28;20391;-69
2021/11/13 13:43:40;;;;;;;28.23;21.17;;;;;;;;;;5068911;28;20113;-59
2021/11/13 13:46:31;;;;;;;31.90;19.90;;;;;;;;;;5059633;28;20021;-61
2021/11/13 13:49:17;;;;;;;27.67;19.75;;;;;;;;;;5042538;28;20039;-62
2021/11/13 13:52:07;;;;;;;24.13;17.63;;;;;;;;;;5048817;28;20044;-62
2021/11/13 13:54:52;;;;;;;26.15;18.48;;;;;;;;;;5049551;28;20035;-60
2021/11/13 13:57:38;;;;;;;27.08;18.60;;;;;;;;;;5033758;28;20061;-62
2021/11/13 14:00:24;;;;;;;24.80;18.15;;;;;;;;;;5051757;28;20170;-64
2021/11/13 14:03:09;;;;;;;26.20;18.52;;;;;;;;;;5042574;28;20184;-62
2021/11/13 14:06:02;;;;;;;30.15;19.75;;;;;;;;;;5048131;28;20356;-64
2021/11/13 14:08:48;;;;;;;29.30;19.55;;;;;;;;;;5050009;28;20166;-61
2021/11/13 14:11:34;;;;;;;30.83;21.17;;;;;;;;;;5054604;28;20545;-62
2021/11/13 14:14:26;;;;;;;26.83;19.17;;;;;;;;;;5067777;28;20044;-63
2021/11/13 14:17:18;;;;;;;27.30;18.98;;;;;;;;;;5067058;28;20099;-63
2021/11/13 14:20:21;;;;;;;28.65;20.80;;;;;;;;;;5053435;28;20454;-61
2021/11/13 14:23:11;;;;;;;30.50;19.50;;;;;;;;;;5068634;28;20093;-62
2021/11/13 14:26:00;;;;;;;24.17;18.17;;;;;;;;;;5066757;28;20115;-63
2021/11/13 14:28:45;;;;;;;;;;;;;;;;;;5051160;28;20066;-63
2021/11/13 14:31:32;;;;;;;30.33;19.23;;;;;;;;;;5034317;28;19913;-62
2021/11/13 14:34:21;;;;;;;30.55;19.90;;;;;;;;;;5053177;28;20024;-64
2021/11/13 14:37:07;;;;;;;24.25;18.63;;;;;;;;;;5049553;28;20431;-62
2021/11/13 14:39:53;;;;;;;28.92;18.10;;;;;;;;;;5053837;28;20033;-62
2021/11/13 14:42:39;;;;;;;23.40;18.38;;;;;;;;;;5048576;28;20036;-65
2021/11/13 14:45:29;;;;;;;25.27;18.92;;;;;;;;;;5041910;28;20466;-62
2021/11/13 14:48:16;;;;;;;25.02;18.75;;;;;;;;;;5053871;28;20654;-62
2021/11/13 14:51:11;;;;;;;30.30;18.55;;;;;;;;;;5040768;28;20116;-65
2021/11/13 14:54:05;;;;;;;25.27;19.80;;;;;;;;;;5048760;28;20100;-66
2021/11/13 14:57:05;;;;;;;24.58;18.60;;;;;;;;;;5049702;28;20228;-60
2021/11/13 14:59:52;;;;;;;24.73;18.02;;;;;;;;;;5049701;28;20588;-65
2021/11/13 15:02:38;;;;;;;23.42;18.52;;;;;;;;;;5046994;28;20429;-63
2021/11/13 15:05:24;;;;;;;26.73;19.67;;;;;;;;;;5038384;28;20528;-63
2021/11/13 15:08:28;;;;;;;26.40;19.92;;;;;;;;;;5059799;28;20528;-64
2021/11/13 15:11:15;;;;;;;25.17;18.40;;;;;;;;;;5065826;28;20040;-67
2021/11/13 15:14:02;;;;;;;28.80;18.45;;;;;;;;;;5046546;28;20375;-65
2021/11/13 15:16:48;;;;;;;23.92;17.95;;;;;;;;;;5053950;28;20032;-69
2021/11/13 15:19:37;;;;;;;23.60;18.00;;;;;;;;;;5048309;28;20081;-68
2021/11/13 15:22:28;;;;;;;27.80;19.90;;;;;;;;;;5051975;28;20036;-69
2021/11/13 15:25:40;;;;;;;27.40;19.20;;;;;;;;;;5056740;28;20041;-67
2021/11/13 15:28:26;;;;;;;25.90;20.67;;;;;;;;;;5055887;28;20563;-68
2021/11/13 15:31:15;;;;;;;25.90;20.42;;;;;;;;;;5061140;28;20029;-62
2021/11/13 15:34:00;;;;;;;26.50;20.00;;;;;;;;;;5022050;28;20476;-64
2021/11/13 15:36:57;;;;;;;25.33;19.80;;;;;;;;;;5049437;28;20024;-65
2021/11/13 15:40:03;;;;;;;28.55;19.23;;;;;;;;;;5066460;28;20036;-64
2021/11/13 15:42:49;;;;;;;24.63;18.55;;;;;;;;;;5039910;28;20479;-64
2021/11/13 15:45:37;;;;;;;25.63;19.48;;;;;;;;;;5061865;28;20048;-63
2021/11/13 15:48:24;;;;;;;26.65;19.13;;;;;;;;;;5049895;28;20028;-73
2021/11/13 15:51:12;;;;;;;23.10;18.02;;;;;;;;;;5063702;28;20058;-68
2021/11/13 15:53:58;;;;;;;24.20;16.70;;;;;;;;;;5053019;28;20043;-63
2021/11/13 15:56:45;;;;;;;25.75;18.83;;;;;;;;;;5051877;28;20040;-64
2021/11/13 15:59:30;;;;;;;25.42;17.83;;;;;;;;;;5046781;28;20131;-63
2021/11/13 16:02:16;;;;;;;25.85;19.70;;;;;;;;;;5067316;28;20022;-65
2021/11/13 16:05:01;;;;;;;27.38;21.10;;;;;;;;;;5053061;28;20530;-66
2021/11/13 16:07:47;;;;;;;25.52;19.15;;;;;;;;;;5053718;28;20415;-64
2021/11/13 16:10:33;;;;;;;26.42;20.38;;;;;;;;;;5044783;28;20107;-68
2021/11/13 16:13:21;;;;;;;29.42;20.45;;;;;;;;;;5053648;28;20032;-66